createdAt,value
2018-03-04T00:00:52.356Z,62.45
2018-03-04T00:03:20.765Z,61.20
2018-03-04T00:05:49.161Z,61.37
2018-03-04T00:08:17.565Z,63.33
2018-03-04T00:10:46.099Z,63.96
2018-03-04T00:13:14.508Z,60.29
2018-03-04T00:15:42.907Z,60.36
2018-03-04T00:18:11.306Z,61.46
2018-03-04T00:20:39.775Z,64.00
2018-03-04T00:23:08.303Z,63.80
2018-03-04T00:25:36.728Z,62.74
2018-03-04T00:28:05.112Z,61.85
2018-03-04T00:30:33.500Z,61.03
2018-03-04T00:33:01.887Z,62.62
2018-03-04T00:35:30.422Z,63.81
2018-03-04T00:37:58.822Z,63.33
2018-03-04T00:40:27.225Z,64.30
2018-03-04T00:42:55.602Z,62.28
2018-03-04T00:45:24.079Z,64.52
2018-03-04T00:47:52.538Z,62.00
2018-03-04T00:50:20.935Z,63.51
2018-03-04T00:52:49.421Z,62.40
2018-03-04T00:55:17.818Z,61.87
2018-03-04T00:57:46.318Z,63.24
2018-03-04T01:00:14.831Z,62.50
2018-03-04T01:02:43.228Z,62.89
2018-03-04T01:05:11.631Z,61.91
2018-03-04T01:07:40.129Z,65.01
2018-03-04T01:10:08.566Z,61.04
2018-03-04T01:12:36.949Z,57.24
2018-03-04T01:15:05.485Z,63.96
2018-03-04T01:17:34.037Z,62.87
2018-03-04T01:20:02.425Z,61.43
2018-03-04T01:22:30.830Z,59.43
2018-03-04T01:24:59.248Z,58.90
2018-03-04T01:27:27.635Z,63.45
2018-03-04T01:29:56.411Z,61.93
2018-03-04T01:32:24.813Z,58.88
2018-03-04T01:34:53.195Z,63.38
2018-03-04T01:37:21.608Z,62.96
2018-03-04T01:39:50.002Z,61.20
2018-03-04T01:42:18.490Z,62.69
2018-03-04T01:44:46.883Z,61.99
2018-03-04T01:47:15.297Z,58.64
2018-03-04T01:49:43.787Z,60.91
2018-03-04T01:52:12.203Z,57.67
2018-03-04T01:54:40.656Z,60.68
2018-03-04T01:57:09.113Z,64.15
2018-03-04T01:59:37.507Z,63.54
2018-03-04T02:02:06.145Z,62.60
2018-03-04T02:04:34.618Z,63.95
2018-03-04T02:07:03.071Z,62.78
2018-03-04T02:09:31.863Z,64.67
2018-03-04T02:12:00.266Z,63.87
2018-03-04T02:14:28.658Z,65.59
2018-03-04T02:16:57.510Z,66.10
2018-03-04T02:19:25.908Z,64.06
2018-03-04T02:21:54.312Z,61.58
2018-03-04T02:24:22.705Z,64.11
2018-03-04T02:26:51.140Z,63.00
2018-03-04T02:29:19.547Z,64.36
2018-03-04T02:31:47.944Z,63.99
2018-03-04T02:34:16.356Z,63.73
2018-03-04T02:36:44.753Z,63.67
2018-03-04T02:39:13.231Z,65.35
2018-03-04T02:41:41.622Z,65.71
2018-03-04T02:44:10.078Z,66.99
2018-03-04T02:46:38.468Z,65.79
2018-03-04T02:49:06.871Z,66.85
2018-03-04T02:51:35.280Z,65.07
2018-03-04T02:54:03.675Z,66.05
2018-03-04T02:56:32.129Z,63.75
2018-03-04T02:59:00.526Z,65.74
2018-03-04T03:01:28.919Z,65.60
2018-03-04T03:03:57.331Z,63.90
2018-03-04T03:06:25.720Z,60.98
2018-03-04T03:08:54.194Z,58.29
2018-03-04T03:13:57.342Z,62.55
2018-03-04T03:16:25.752Z,61.10
2018-03-04T03:18:54.164Z,65.59
2018-03-04T03:21:22.563Z,67.35
2018-03-04T03:23:50.938Z,67.09
2018-03-04T03:26:19.399Z,68.21
2018-03-04T03:28:47.762Z,67.43
2018-03-04T03:31:16.168Z,67.79
2018-03-04T03:33:44.562Z,64.00
2018-03-04T03:36:12.945Z,62.58
2018-03-04T03:38:41.398Z,65.93
2018-03-04T03:41:09.801Z,64.96
2018-03-04T03:43:38.186Z,64.85
2018-03-04T03:46:06.643Z,64.01
2018-03-04T03:48:35.030Z,64.28
2018-03-04T03:51:03.491Z,64.97
2018-03-04T03:53:31.860Z,61.81
2018-03-04T03:56:00.266Z,62.27
2018-03-04T03:58:28.656Z,60.31
2018-03-04T04:00:57.206Z,62.04
2018-03-04T04:03:25.588Z,64.12
2018-03-04T04:05:53.991Z,62.45
2018-03-04T04:08:22.404Z,61.76
2018-03-04T04:10:50.797Z,61.59
2018-03-04T04:13:19.236Z,62.59
2018-03-04T04:15:47.640Z,63.05
2018-03-04T04:18:16.037Z,63.53
2018-03-04T04:20:44.424Z,64.04
2018-03-04T04:23:12.811Z,62.90
2018-03-04T04:25:41.354Z,64.84
2018-03-04T04:28:09.723Z,66.07
2018-03-04T04:30:38.098Z,63.51
2018-03-04T04:33:06.505Z,65.31
2018-03-04T04:35:34.891Z,64.92
2018-03-04T04:38:03.265Z,60.00
2018-03-04T04:40:31.676Z,63.89
2018-03-04T04:43:00.120Z,62.24
2018-03-04T04:45:28.518Z,59.76
2018-03-04T04:47:56.907Z,61.33
2018-03-04T04:50:25.302Z,59.31
2018-03-04T04:52:53.702Z,59.92
2018-03-04T04:55:22.168Z,58.63
2018-03-04T04:57:50.578Z,63.33
2018-03-04T05:00:18.988Z,62.42
2018-03-04T05:02:47.391Z,61.84
2018-03-04T05:05:15.871Z,60.66
2018-03-04T05:07:44.318Z,62.38
2018-03-04T05:10:12.698Z,61.78
2018-03-04T05:12:41.065Z,58.83
2018-03-04T05:15:09.479Z,61.02
2018-03-04T05:17:37.882Z,64.95
2018-03-04T05:20:06.640Z,62.81
2018-03-04T05:22:35.033Z,59.93
2018-03-04T05:25:03.442Z,61.62
2018-03-04T05:27:31.834Z,61.40
2018-03-04T05:30:00.238Z,61.00
2018-03-04T05:32:28.701Z,61.16
2018-03-04T05:34:57.077Z,63.78
2018-03-04T05:37:25.472Z,67.12
2018-03-04T05:39:53.862Z,67.89
2018-03-04T05:42:22.356Z,64.43
2018-03-04T05:44:50.955Z,61.92
2018-03-04T05:47:19.359Z,65.85
2018-03-04T05:49:47.749Z,61.80
2018-03-04T05:52:16.116Z,63.12
2018-03-04T05:54:44.533Z,61.93
2018-03-04T05:57:13.974Z,63.78
2018-03-04T05:59:42.423Z,61.87
2018-03-04T06:02:10.847Z,63.00
2018-03-04T06:04:39.253Z,63.90
2018-03-04T06:07:07.734Z,64.52
2018-03-04T06:09:36.258Z,64.82
2018-03-04T06:12:04.712Z,63.91
2018-03-04T06:14:33.184Z,61.71
2018-03-04T06:17:01.739Z,60.11
2018-03-04T06:19:30.152Z,58.60
2018-03-04T06:21:58.684Z,57.30
2018-03-04T06:24:27.098Z,61.56
2018-03-04T06:26:55.512Z,60.33
2018-03-04T06:29:23.953Z,62.18
2018-03-04T06:31:52.351Z,65.13
2018-03-04T06:34:20.886Z,62.59
2018-03-04T06:36:49.309Z,66.15
2018-03-04T06:39:17.713Z,65.42
2018-03-04T06:41:46.126Z,65.44
2018-03-04T06:44:14.517Z,64.59
2018-03-04T06:46:42.980Z,66.92
2018-03-04T06:49:11.421Z,68.83
2018-03-04T06:51:39.835Z,62.75
2018-03-04T06:54:08.252Z,60.88
2018-03-04T06:56:36.660Z,64.40
2018-03-04T06:59:05.164Z,64.62
2018-03-04T07:01:33.626Z,62.44
2018-03-04T07:04:02.354Z,60.17
2018-03-04T07:06:30.767Z,58.92
2018-03-04T07:08:59.185Z,57.68
2018-03-04T07:11:27.812Z,57.81
2018-03-04T07:13:56.331Z,56.78
2018-03-04T07:16:24.811Z,56.26
2018-03-04T07:18:53.201Z,54.82
2018-03-04T07:21:21.658Z,58.97
2018-03-04T07:23:50.154Z,54.67
2018-03-04T07:26:18.581Z,53.38
2018-03-04T07:28:46.999Z,55.87
2018-03-04T07:31:15.415Z,53.69
2018-03-04T07:33:44.640Z,56.58
2018-03-04T07:36:13.071Z,55.17
2018-03-04T07:38:41.500Z,55.77
2018-03-04T07:41:09.917Z,55.39
2018-03-04T07:43:38.347Z,57.77
2018-03-04T07:46:06.745Z,54.96
2018-03-04T07:48:35.224Z,55.54
2018-03-04T07:51:03.646Z,60.18
2018-03-04T07:53:32.207Z,58.01
2018-03-04T07:56:00.700Z,55.51
2018-03-04T07:58:29.158Z,53.04
2018-03-04T08:00:57.682Z,53.67
2018-03-04T08:03:26.096Z,54.68
2018-03-04T08:05:54.540Z,55.40
2018-03-04T08:08:22.946Z,52.19
2018-03-04T08:10:51.380Z,49.26
2018-03-04T08:13:19.799Z,46.82
2018-03-04T08:15:48.255Z,46.70
2018-03-04T08:18:16.861Z,46.86
2018-03-04T08:20:45.243Z,44.81
2018-03-04T08:23:13.693Z,44.53
2018-03-04T08:25:42.107Z,45.30
2018-03-04T08:28:22.211Z,45.22
2018-03-04T08:30:51.551Z,44.26
2018-03-04T08:33:20.020Z,44.81
2018-03-04T08:35:48.584Z,46.21
2018-03-04T08:38:17.008Z,49.11
2018-03-04T08:40:45.392Z,48.99
2018-03-04T08:43:13.805Z,45.52
2018-03-04T08:45:42.251Z,44.77
2018-03-04T08:48:10.699Z,40.90
2018-03-04T08:50:39.120Z,37.69
2018-03-04T08:53:07.850Z,33.23
2018-03-04T08:55:36.345Z,31.08
2018-03-04T08:58:04.826Z,30.10
2018-03-04T09:00:33.231Z,27.53
2018-03-04T09:03:01.690Z,27.95
2018-03-04T09:05:30.193Z,27.19
2018-03-04T09:07:58.595Z,27.84
2018-03-04T09:10:27.042Z,25.22
2018-03-04T09:12:55.467Z,26.22
2018-03-04T09:15:23.901Z,26.98
2018-03-04T09:17:52.352Z,25.58
2018-03-04T09:20:20.801Z,26.46
2018-03-04T09:22:49.504Z,27.36
2018-03-04T09:25:17.908Z,25.21
2018-03-04T09:27:46.519Z,26.42
2018-03-04T09:30:14.983Z,24.35
2018-03-04T09:32:43.474Z,24.94
2018-03-04T09:35:11.958Z,24.88
2018-03-04T09:37:40.425Z,24.53
2018-03-04T09:40:08.834Z,27.20
2018-03-04T09:42:37.304Z,25.27
2018-03-04T09:45:05.732Z,23.68
2018-03-04T09:47:34.177Z,23.93
2018-03-04T09:50:02.675Z,24.03
2018-03-04T09:52:31.081Z,24.36
2018-03-04T09:54:59.564Z,26.84
2018-03-04T09:57:28.055Z,27.04
2018-03-04T09:59:56.452Z,27.83
2018-03-04T10:02:24.883Z,26.99
2018-03-04T10:04:53.300Z,25.13
2018-03-04T10:07:21.843Z,25.48
2018-03-04T10:09:50.343Z,25.71
2018-03-04T10:12:18.777Z,26.26
2018-03-04T10:14:47.291Z,28.32
2018-03-04T10:17:15.903Z,29.02
2018-03-04T10:19:44.836Z,28.19
2018-03-04T10:22:13.364Z,26.52
2018-03-04T10:24:41.829Z,27.55
2018-03-04T10:27:10.353Z,29.86
2018-03-04T10:29:38.789Z,29.66
2018-03-04T10:32:07.306Z,29.59
2018-03-04T10:34:35.703Z,27.79
2018-03-04T10:37:04.878Z,27.75
2018-03-04T10:39:33.323Z,31.19
2018-03-04T10:42:01.760Z,31.16
2018-03-04T10:44:30.338Z,31.71
2018-03-04T10:46:58.792Z,31.59
2018-03-04T10:49:27.250Z,31.57
2018-03-04T10:51:55.654Z,31.68
2018-03-04T10:54:24.251Z,30.92
2018-03-04T10:56:52.838Z,34.38
2018-03-04T10:59:21.402Z,35.26
2018-03-04T11:01:51.320Z,35.03
2018-03-04T11:04:19.761Z,35.23
2018-03-04T11:06:48.185Z,38.84
2018-03-04T11:09:16.662Z,37.59
2018-03-04T11:11:45.186Z,40.55
2018-03-04T11:14:13.605Z,41.09
2018-03-04T11:16:42.135Z,39.66
2018-03-04T11:19:10.541Z,41.24
2018-03-04T11:21:39.085Z,42.97
2018-03-04T11:26:42.392Z,43.49
2018-03-04T11:29:11.802Z,47.56
2018-03-04T11:31:40.250Z,45.15
2018-03-04T11:34:08.696Z,46.91
2018-03-04T11:36:37.139Z,48.55
2018-03-04T11:39:05.913Z,47.29
2018-03-04T11:41:34.383Z,42.64
2018-03-04T11:44:02.816Z,40.79
2018-03-04T11:46:31.255Z,39.01
2018-03-04T11:48:59.752Z,38.19
2018-03-04T11:51:28.263Z,36.57
2018-03-04T11:53:57.088Z,32.34
2018-03-04T11:56:25.556Z,29.75
2018-03-04T11:58:54.091Z,29.49
2018-03-04T12:01:22.553Z,29.13
2018-03-04T12:03:51.077Z,31.20
2018-03-04T12:06:19.546Z,32.33
2018-03-04T12:08:47.954Z,34.55
2018-03-04T12:11:16.354Z,36.07
2018-03-04T12:13:44.751Z,35.86
2018-03-04T12:16:13.214Z,36.58
2018-03-04T12:18:41.688Z,36.47
2018-03-04T12:21:10.099Z,35.23
2018-03-04T12:23:38.519Z,35.12
2018-03-04T12:26:06.938Z,34.03
2018-03-04T12:28:35.487Z,33.88
2018-03-04T12:31:03.962Z,33.11
2018-03-04T12:33:32.415Z,34.08
2018-03-04T12:36:00.990Z,31.95
2018-03-04T12:38:29.374Z,31.46
2018-03-04T12:40:57.876Z,33.55
2018-03-04T12:43:26.438Z,33.60
2018-03-04T12:45:54.983Z,33.17
2018-03-04T12:48:23.478Z,29.78
2018-03-04T12:50:51.875Z,30.26
2018-03-04T12:53:20.453Z,29.43
2018-03-04T12:55:48.865Z,28.40
2018-03-04T12:58:17.392Z,30.22
2018-03-04T13:00:45.843Z,28.45
2018-03-04T13:03:14.287Z,32.00
2018-03-04T13:05:43.131Z,32.65
2018-03-04T13:08:11.552Z,35.01
2018-03-04T13:10:39.990Z,36.79
2018-03-04T13:13:08.407Z,38.89
2018-03-04T13:15:37.026Z,41.33
2018-03-04T13:18:05.572Z,42.03
2018-03-04T13:20:35.121Z,42.71
2018-03-04T13:23:04.115Z,42.97
2018-03-04T13:25:32.584Z,44.54
2018-03-04T13:28:01.040Z,46.14
2018-03-04T13:30:29.646Z,46.74
2018-03-04T13:32:58.119Z,46.10
2018-03-04T13:35:26.534Z,46.79
2018-03-04T13:37:54.965Z,47.25
2018-03-04T13:40:23.516Z,46.19
2018-03-04T13:42:51.991Z,47.13
2018-03-04T13:45:20.400Z,46.84
2018-03-04T13:47:48.994Z,46.55
2018-03-04T13:50:17.415Z,45.99
2018-03-04T13:52:45.930Z,48.94
2018-03-04T13:55:14.470Z,48.78
2018-03-04T13:57:42.902Z,47.66
2018-03-04T14:00:11.357Z,51.07
2018-03-04T14:02:39.817Z,53.17
2018-03-04T14:05:08.228Z,52.50
2018-03-04T14:07:36.944Z,54.30
2018-03-04T14:10:05.407Z,54.09
2018-03-04T14:12:33.975Z,56.97
2018-03-04T14:15:02.398Z,54.63
2018-03-04T14:17:30.834Z,53.31
2018-03-04T14:19:59.543Z,52.14
2018-03-04T14:22:28.136Z,52.94
2018-03-04T14:24:56.598Z,51.29
2018-03-04T14:27:25.678Z,53.64
2018-03-04T14:29:54.152Z,51.74
2018-03-04T14:32:22.639Z,53.50
2018-03-04T14:34:51.164Z,51.43
2018-03-04T14:37:19.611Z,52.06
2018-03-04T14:39:48.020Z,50.03
2018-03-04T14:42:16.621Z,52.30
2018-03-04T14:44:45.257Z,51.00
2018-03-04T14:47:13.768Z,51.23
2018-03-04T14:49:42.208Z,53.40
2018-03-04T14:52:10.662Z,52.38
2018-03-04T14:54:39.156Z,54.89
2018-03-04T14:57:07.704Z,53.60
2018-03-04T14:59:36.145Z,53.11
2018-03-04T15:02:04.614Z,56.24
2018-03-04T15:04:33.086Z,56.35
2018-03-04T15:07:01.666Z,56.47
2018-03-04T15:09:30.191Z,55.35
2018-03-04T15:11:58.753Z,53.23
2018-03-04T15:14:27.245Z,53.47
2018-03-04T15:16:55.874Z,55.77
2018-03-04T15:19:24.331Z,55.03
2018-03-04T15:21:52.844Z,57.95
2018-03-04T15:24:21.352Z,58.79
2018-03-04T15:26:49.787Z,59.71
2018-03-04T15:29:18.484Z,60.41
2018-03-04T15:31:46.888Z,62.04
2018-03-04T15:34:15.552Z,62.17
2018-03-04T15:36:44.054Z,62.89
2018-03-04T15:39:12.487Z,60.97
2018-03-04T15:41:40.972Z,63.43
2018-03-04T15:44:09.388Z,62.16
2018-03-04T15:46:37.927Z,61.66
2018-03-04T15:49:06.383Z,59.96
2018-03-04T15:51:34.810Z,61.00
2018-03-04T15:54:03.262Z,62.95
2018-03-04T15:56:31.764Z,62.96
2018-03-04T15:59:00.306Z,62.27
2018-03-04T16:01:28.779Z,62.17
2018-03-04T16:03:57.200Z,62.07
2018-03-04T16:06:25.691Z,63.08
2018-03-04T16:08:54.118Z,59.95
2018-03-04T16:11:22.582Z,58.31
2018-03-04T16:13:50.995Z,60.20
2018-03-04T16:16:19.401Z,63.20
2018-03-04T16:18:47.833Z,60.58
2018-03-04T16:21:34.768Z,63.93
2018-03-04T16:24:03.568Z,64.31
2018-03-04T16:26:31.980Z,63.54
2018-03-04T16:29:00.482Z,61.74
2018-03-04T16:31:28.903Z,61.21
2018-03-04T16:33:57.477Z,60.28
2018-03-04T16:36:26.017Z,62.76
2018-03-04T16:38:54.517Z,62.69
2018-03-04T16:41:23.074Z,61.25
2018-03-04T16:43:51.516Z,63.21
2018-03-04T16:46:19.970Z,60.15
2018-03-04T16:48:49.191Z,59.02
2018-03-04T16:51:17.590Z,62.44
2018-03-04T16:53:46.151Z,64.57
2018-03-04T16:56:14.789Z,64.89
2018-03-04T16:58:43.346Z,64.52
2018-03-04T17:01:11.863Z,64.91
2018-03-04T17:03:40.390Z,65.11
2018-03-04T17:06:09.092Z,65.88
2018-03-04T17:08:37.532Z,65.01
2018-03-04T17:11:06.057Z,65.75
2018-03-04T17:13:34.471Z,67.91
2018-03-04T17:16:03.363Z,65.34
2018-03-04T17:18:31.918Z,62.88
2018-03-04T17:21:00.572Z,64.74
2018-03-04T17:23:29.091Z,67.31
2018-03-04T17:25:57.487Z,67.91
2018-03-04T17:28:25.888Z,64.86
2018-03-04T17:30:54.341Z,64.57
2018-03-04T17:33:22.753Z,67.94
2018-03-04T17:35:51.151Z,67.74
2018-03-04T17:38:19.567Z,62.74
2018-03-04T17:40:47.969Z,62.07
2018-03-04T17:43:16.486Z,65.37
2018-03-04T17:45:44.891Z,65.12
2018-03-04T17:48:13.376Z,65.34
2018-03-04T17:50:41.777Z,68.16
2018-03-04T17:53:10.182Z,66.82
2018-03-04T17:55:38.660Z,68.23
2018-03-04T17:58:07.058Z,67.23
2018-03-04T18:00:35.446Z,65.93
2018-03-04T18:03:03.853Z,67.10
2018-03-04T18:05:32.304Z,61.38
2018-03-04T18:08:00.754Z,64.37
2018-03-04T18:10:29.167Z,66.12
2018-03-04T18:12:57.563Z,65.17
2018-03-04T18:15:25.981Z,63.41
2018-03-04T18:17:54.395Z,62.99
2018-03-04T18:20:23.093Z,65.80
2018-03-04T18:22:51.485Z,65.50
2018-03-04T18:25:19.894Z,62.05
2018-03-04T18:27:48.298Z,62.75
2018-03-04T18:30:16.831Z,62.51
2018-03-04T18:32:45.635Z,65.60
2018-03-04T18:35:14.051Z,65.40
2018-03-04T18:37:42.439Z,66.98
2018-03-04T18:40:10.850Z,66.26
2018-03-04T18:42:39.273Z,63.12
2018-03-04T18:45:07.724Z,64.51
2018-03-04T18:47:36.128Z,64.43
2018-03-04T18:50:04.607Z,62.41
2018-03-04T18:52:32.995Z,63.69
2018-03-04T18:55:01.407Z,61.43
2018-03-04T18:57:30.612Z,63.45
2018-03-04T18:59:59.015Z,63.33
2018-03-04T19:02:27.432Z,59.79
2018-03-04T19:04:55.832Z,61.24
2018-03-04T19:07:24.227Z,61.58
2018-03-04T19:09:52.745Z,59.55
2018-03-04T19:12:21.163Z,60.66
2018-03-04T19:14:49.568Z,59.52
2018-03-04T19:17:18.018Z,60.86
2018-03-04T19:19:46.440Z,59.65
2018-03-04T19:22:14.922Z,61.43
2018-03-04T19:24:43.354Z,60.00
2018-03-04T19:27:11.766Z,63.61
2018-03-04T19:29:40.151Z,62.76
2018-03-04T19:32:08.634Z,61.28
2018-03-04T19:34:37.104Z,61.53
2018-03-04T19:40:07.502Z,64.43
2018-03-04T19:42:35.912Z,62.51
2018-03-04T19:47:45.548Z,60.53
2018-03-04T19:50:14.002Z,63.19
2018-03-04T19:52:42.495Z,59.36
2018-03-04T19:55:10.881Z,62.04
2018-03-04T19:57:39.330Z,60.10
2018-03-04T20:00:07.808Z,62.83
2018-03-04T20:02:36.669Z,62.47
2018-03-04T20:05:05.190Z,64.01
2018-03-04T20:07:33.613Z,60.50
2018-03-04T20:10:01.995Z,61.87
2018-03-04T20:12:30.564Z,63.21
2018-03-04T20:14:59.003Z,64.05
2018-03-04T20:17:27.390Z,64.42
2018-03-04T20:19:55.794Z,63.88
2018-03-04T20:22:24.192Z,62.21
2018-03-04T20:24:52.784Z,62.27
2018-03-04T20:27:21.200Z,62.84
2018-03-04T20:29:49.616Z,64.84
2018-03-04T20:32:18.008Z,63.35
2018-03-04T20:34:46.606Z,62.53
2018-03-04T20:37:15.403Z,64.12
2018-03-04T20:39:43.820Z,62.67
2018-03-04T20:42:12.223Z,61.26
2018-03-04T20:44:40.618Z,62.83
2018-03-04T20:47:09.017Z,62.92
2018-03-04T20:49:37.478Z,61.85
2018-03-04T20:52:05.907Z,63.33
2018-03-04T20:54:34.526Z,63.81
2018-03-04T20:57:03.056Z,63.23
2018-03-04T20:59:31.555Z,62.63
2018-03-04T21:02:00.031Z,59.94
2018-03-04T21:04:28.423Z,62.58
2018-03-04T21:06:56.823Z,60.84
2018-03-04T21:09:25.265Z,62.59
2018-03-04T21:11:53.658Z,63.21
2018-03-04T21:14:22.207Z,65.22
2018-03-04T21:16:50.628Z,64.01
2018-03-04T21:19:19.106Z,64.80
2018-03-04T21:21:47.526Z,65.53
2018-03-04T21:24:15.938Z,64.61
2018-03-04T21:26:44.408Z,66.81
2018-03-04T21:29:12.799Z,64.37
2018-03-04T21:31:41.205Z,64.62
2018-03-04T21:34:09.682Z,63.61
2018-03-04T21:36:38.099Z,61.02
2018-03-04T21:39:06.642Z,63.34
2018-03-04T21:41:35.044Z,65.16
2018-03-04T21:44:03.673Z,64.26
2018-03-04T21:46:32.179Z,62.99
2018-03-04T21:49:00.578Z,63.84
2018-03-04T21:51:29.042Z,65.32
2018-03-04T21:53:57.444Z,64.52
2018-03-04T21:56:25.881Z,64.10
2018-03-04T21:58:54.270Z,64.36
2018-03-04T22:01:22.702Z,65.01
2018-03-04T22:03:51.173Z,64.02
2018-03-04T22:06:19.595Z,64.19
2018-03-04T22:08:48.033Z,63.83
2018-03-04T22:11:16.450Z,62.59
2018-03-04T22:13:44.971Z,60.47
2018-03-04T22:16:13.582Z,60.97
2018-03-04T22:18:42.051Z,61.77
2018-03-04T22:21:10.488Z,62.38
2018-03-04T22:23:38.878Z,63.49
2018-03-04T22:26:07.305Z,63.01
2018-03-04T22:28:35.762Z,64.40
2018-03-04T22:31:04.223Z,61.64
2018-03-04T22:33:32.640Z,61.27
2018-03-04T22:36:01.036Z,63.20
2018-03-04T22:38:29.446Z,65.04
2018-03-04T22:40:58.227Z,64.47
2018-03-04T22:43:26.623Z,64.51
2018-03-04T22:45:55.018Z,63.44
2018-03-04T22:48:23.483Z,64.74
2018-03-04T22:50:51.899Z,63.09
2018-03-04T22:53:20.464Z,62.27
2018-03-04T22:55:49.110Z,62.81
2018-03-04T22:58:17.479Z,61.13
2018-03-04T23:00:45.887Z,62.95
2018-03-04T23:03:14.278Z,59.92
2018-03-04T23:05:42.719Z,60.85
2018-03-04T23:08:11.411Z,58.88
2018-03-04T23:10:39.952Z,61.44
2018-03-04T23:13:08.387Z,59.96
2018-03-04T23:15:36.784Z,58.54
2018-03-04T23:18:06.351Z,59.07
2018-03-04T23:20:34.763Z,57.42
2018-03-04T23:23:03.340Z,57.20
2018-03-04T23:25:31.749Z,59.72
2018-03-04T23:28:00.156Z,60.87
2018-03-04T23:30:28.583Z,58.86
2018-03-04T23:32:57.071Z,60.31
2018-03-04T23:35:25.531Z,61.13
2018-03-04T23:37:53.938Z,59.63
2018-03-04T23:40:22.347Z,60.12
2018-03-04T23:42:50.782Z,62.99
2018-03-04T23:45:19.265Z,62.82
2018-03-04T23:47:47.662Z,66.28
2018-03-04T23:50:16.088Z,65.30
2018-03-04T23:52:44.817Z,64.30
2018-03-04T23:55:13.414Z,63.14
2018-03-04T23:57:44.095Z,65.74
